Time;durP1;ratioP1;P1;durP2;ratioP2;P2;SDS_P1;SDS_P2;PMS_P1;PMS_P2;Temp;Humidity;BMP_temperature;BMP_pressure;BME280_temperature;BME280_humidity;BME280_pressure;Samples;Min_cycle;Max_cycle;Signal;HPM_P1;HPM_P2
2021/12/04 00:02:05;;;;;;;;;;;;;;;10.02;53.84;99561.25;5002743;27;97984;-68
2021/12/04 00:04:36;;;;;;;;;;;;;;;10.02;53.71;99556.72;4984088;27;98865;-59
2021/12/04 00:07:04;;;;;;;;;;;;;;;10.03;53.68;99549.44;4996402;27;99145;-59
2021/12/04 00:09:30;;;;;;;;;;;;;;;10.03;53.87;99558.31;4998828;27;97912;-68
2021/12/04 00:12:01;;;;;;;;;;;;;;;10.04;54.15;99548.31;5002725;27;97723;-59
2021/12/04 00:14:27;;;;;;;;;;;;;;;10.05;53.53;99558.81;5001922;27;98229;-59
2021/12/04 00:16:53;;;;;;;;;;;;;;;10.06;53.69;99555.03;4996194;27;121459;-65
2021/12/04 00:19:19;;;;;;;;;;;;;;;10.06;53.80;99549.66;4997848;27;109305;-59
2021/12/04 00:21:45;;;;;;;;;;;;;;;10.07;54.16;99551.25;4982076;27;117773;-60
2021/12/04 00:24:11;;;;;;;;;;;;;;;10.07;53.54;99550.47;5002262;27;98629;-59
2021/12/04 00:26:37;;;;;;;;;;;;;;;10.07;53.43;99543.19;4999665;27;107150;-60
2021/12/04 00:29:03;;;;;;;;;;;;;;;10.08;53.46;99541.28;4994865;27;100032;-69
2021/12/04 00:31:29;;;;;;;;;;;;;;;10.07;52.98;99540.47;5002433;27;107561;-59
2021/12/04 00:33:55;;;;;;;;;;;;;;;10.08;53.91;99539.38;5001073;27;98285;-68
2021/12/04 00:50:12;;;;;;;;;;;;;;;10.12;53.92;99528.84;4998863;27;98415;-59
2021/12/04 00:52:38;;;;;;;;;;;;;;;10.13;53.40;99525.06;5001112;27;116978;-69
2021/12/04 00:55:05;;;;;;;;;;;;;;;10.14;53.53;99537.47;5000979;27;106761;-59
2021/12/04 00:57:31;;;;;;;;;;;;;;;10.14;53.69;99534.75;4993956;27;99230;-59
2021/12/04 00:59:56;;;;;;;;;;;;;;;10.15;53.58;99532.88;4999672;27;122044;-69
2021/12/04 01:02:22;;;;;;;;;;;;;;;10.17;53.48;99528.78;5000985;27;118751;-69
2021/12/04 01:04:49;;;;;;;;;;;;;;;10.17;53.54;99527.97;4983229;27;111432;-60
2021/12/04 01:07:14;;;;;;;;;;;;;;;10.17;53.76;99528.78;4994529;27;98620;-68
2021/12/04 01:09:41;;;;;;;;;;;;;;;10.17;53.56;99530.69;5002611;27;126807;-68
2021/12/04 01:12:07;;;;;;;;;;;;;;;10.18;54.00;99526.88;5005098;27;97815;-58
2021/12/04 01:14:33;;;;;;;;;;;;;;;10.19;53.71;99523.13;5002848;27;128615;-68
2021/12/04 01:16:59;;;;;;;;;;;;;;;10.20;52.93;99525.53;5000353;27;99297;-69
2021/12/04 01:19:26;;;;;;;;;;;;;;;10.20;53.90;99513.94;5000448;27;124074;-59
2021/12/04 01:21:52;;;;;;;;;;;;;;;10.20;53.76;99517.44;5004346;27;98060;-60
2021/12/04 01:24:18;;;;;;;;;;;;;;;10.20;53.82;99528.22;5003416;27;127815;-59
2021/12/04 01:26:44;;;;;;;;;;;;;;;10.22;53.96;99517.19;5000811;27;98884;-59
2021/12/04 01:29:10;;;;;;;;;;;;;;;10.21;53.54;99521.72;4999958;27;119234;-69
2021/12/04 01:31:36;;;;;;;;;;;;;;;10.23;53.61;99516.06;5004576;27;97686;-59
2021/12/04 01:34:02;;;;;;;;;;;;;;;10.23;53.28;99518.78;5003372;27;128599;-68
2021/12/04 01:36:29;;;;;;;;;;;;;;;10.23;53.94;99518.78;5002453;27;116774;-69
2021/12/04 01:38:55;;;;;;;;;;;;;;;10.23;53.80;99524.97;4997689;27;97956;-59
2021/12/04 01:41:21;;;;;;;;;;;;;;;10.23;53.40;99524.16;5004296;27;106821;-68
2021/12/04 01:43:47;;;;;;;;;;;;;;;10.25;52.92;99516.59;5003538;27;127409;-68
2021/12/04 01:46:13;;;;;;;;;;;;;;;10.24;53.96;99513.09;5003138;27;126004;-68
2021/12/04 01:48:39;;;;;;;;;;;;;;;10.24;53.73;99518.47;4976756;27;98116;-68
2021/12/04 01:51:05;;;;;;;;;;;;;;;10.25;53.45;99522.78;5004028;27;119555;-69
2021/12/04 01:53:30;;;;;;;;;;;;;;;10.24;53.37;99517.66;5004143;27;113014;-59
2021/12/04 01:55:57;;;;;;;;;;;;;;;10.25;53.94;99520.09;5003696;27;98688;-59
2021/12/04 01:58:24;;;;;;;;;;;;;;;10.25;53.28;99519.31;4996108;27;98901;-59
2021/12/04 02:00:50;;;;;;;;;;;;;;;10.25;53.38;99519.31;5004772;27;100385;-59
2021/12/04 02:03:17;;;;;;;;;;;;;;;10.24;53.90;99512.28;4985199;27;117457;-59
2021/12/04 02:05:43;;;;;;;;;;;;;;;10.22;53.70;99512.59;4986227;27;98304;-69
2021/12/04 02:08:11;;;;;;;;;;;;;;;10.23;53.40;99516.06;4977131;27;123753;-69
2021/12/04 02:10:37;;;;;;;;;;;;;;;10.23;53.57;99508.00;4968366;27;98716;-59
2021/12/04 02:13:03;;;;;;;;;;;;;;;10.21;53.26;99507.47;4983419;27;127580;-68
2021/12/04 02:15:29;;;;;;;;;;;;;;;10.21;53.58;99505.56;5003266;27;98788;-60
2021/12/04 02:17:56;;;;;;;;;;;;;;;10.20;53.19;99501.28;4994970;27;98270;-68
2021/12/04 02:20:23;;;;;;;;;;;;;;;10.20;53.03;99506.66;5004155;27;98180;-69
2021/12/04 02:22:49;;;;;;;;;;;;;;;10.19;53.17;99501.59;5004694;27;98859;-60
2021/12/04 02:25:16;;;;;;;;;;;;;;;10.20;53.24;99503.97;5003154;27;122469;-59
2021/12/04 02:27:42;;;;;;;;;;;;;;;10.20;53.69;99501.28;4996176;27;98502;-69
2021/12/04 02:30:09;;;;;;;;;;;;;;;10.20;53.91;99495.91;5004745;27;97733;-59
2021/12/04 02:32:36;;;;;;;;;;;;;;;10.19;52.88;99496.19;5002731;27;98851;-59
2021/12/04 02:35:01;;;;;;;;;;;;;;;10.20;53.46;99497.78;5002937;27;99232;-69
2021/12/04 02:37:27;;;;;;;;;;;;;;;10.20;54.13;99489.72;4994057;27;126300;-60
2021/12/04 02:39:58;;;;;;;;;;;;;;;10.20;53.27;99484.31;4983736;27;119657;-59
2021/12/04 02:42:27;;;;;;;;;;;;;;;10.20;53.23;99485.13;5002949;27;98004;-59
2021/12/04 02:44:53;;;;;;;;;;;;;;;10.19;53.48;99483.53;5003450;27;98369;-59
2021/12/04 02:47:19;;;;;;;;;;;;;;;10.21;53.78;99485.91;4995185;27;98008;-59
2021/12/04 02:49:48;;;;;;;;;;;;;;;10.20;54.09;99479.75;5003493;27;98037;-68
2021/12/04 02:52:14;;;;;;;;;;;;;;;10.21;53.44;99473.25;5002079;27;111091;-69
2021/12/04 02:54:40;;;;;;;;;;;;;;;10.22;53.72;99471.38;5003014;27;119858;-69
2021/12/04 02:57:07;;;;;;;;;;;;;;;10.21;53.72;99465.19;4996838;27;97789;-69
2021/12/04 02:59:35;;;;;;;;;;;;;;;10.21;53.22;99464.38;4984817;27;98106;-59
2021/12/04 03:02:01;;;;;;;;;;;;;;;10.22;53.26;99444.47;5001737;27;98360;-69
2021/12/04 03:04:28;;;;;;;;;;;;;;;10.21;53.30;99448.22;5002509;27;127914;-59
2021/12/04 03:06:54;;;;;;;;;;;;;;;10.22;53.88;99441.75;4997436;27;97861;-60
2021/12/04 03:09:19;;;;;;;;;;;;;;;10.22;53.30;99441.75;4999751;27;107028;-69
2021/12/04 03:11:45;;;;;;;;;;;;;;;10.21;54.24;99442.84;5002449;27;120717;-60
2021/12/04 03:14:11;;;;;;;;;;;;;;;10.21;53.57;99432.06;5002070;27;119536;-60
2021/12/04 03:16:40;;;;;;;;;;;;;;;10.21;53.99;99429.38;5000831;27;97974;-68
2021/12/04 03:19:06;;;;;;;;;;;;;;;10.21;53.87;99421.28;4997339;27;98199;-59
2021/12/04 03:21:33;;;;;;;;;;;;;;;10.21;53.35;99419.38;5002165;27;107951;-69
2021/12/04 03:24:03;;;;;;;;;;;;;;;10.22;53.39;99420.22;5003203;27;98265;-68
2021/12/04 03:26:28;;;;;;;;;;;;;;;10.22;54.14;99420.22;5001945;27;98258;-59
2021/12/04 03:28:56;;;;;;;;;;;;;;;10.23;53.56;99419.13;4996592;27;109795;-68
2021/12/04 03:31:42;;;;;;;;;;;;;;;10.23;53.39;99417.22;4983494;27;98275;-69
2021/12/04 03:42:21;;;;;;;;;;;;;;;10.24;53.19;99401.84;5000902;27;98059;-67
2021/12/04 03:44:48;;;;;;;;;;;;;;;10.24;53.13;99399.97;5002253;27;115691;-68
2021/12/04 03:47:14;;;;;;;;;;;;;;;10.25;53.84;99385.44;4973581;28;97854;-60
2021/12/04 03:49:39;;;;;;;;;;;;;;;10.24;53.87;99389.19;4999275;27;118922;-60
2021/12/04 03:52:06;;;;;;;;;;;;;;;10.25;53.67;99374.66;5001583;27;127066;-59
2021/12/04 03:54:33;;;;;;;;;;;;;;;10.26;53.75;99370.09;5001190;27;118514;-59
2021/12/04 03:57:05;;;;;;;;;;;;;;;10.25;53.87;99374.66;4996887;27;107870;-69
2021/12/04 03:59:35;;;;;;;;;;;;;;;10.24;53.56;99367.66;5000225;27;97823;-69
2021/12/04 04:02:01;;;;;;;;;;;;;;;10.26;53.53;99373.59;5001261;27;98562;-59
2021/12/04 04:04:27;;;;;;;;;;;;;;;10.26;53.21;99364.72;5001987;27;126428;-68
2021/12/04 04:06:53;;;;;;;;;;;;;;;10.26;53.85;99368.19;4996476;27;124740;-69
2021/12/04 04:09:20;;;;;;;;;;;;;;;10.26;53.76;99365.50;4997675;27;115769;-68
2021/12/04 04:11:47;;;;;;;;;;;;;;;10.26;53.52;99362.81;5002028;27;98463;-60
2021/12/04 04:14:13;;;;;;;;;;;;;;;10.25;53.37;99357.69;5001784;27;98996;-59
2021/12/04 04:16:40;;;;;;;;;;;;;;;10.26;53.38;99362.00;4998890;27;98418;-60
2021/12/04 04:19:06;;;;;;;;;;;;;;;10.26;53.57;99360.13;4996926;27;97794;-68
2021/12/04 04:21:38;;;;;;;;;;;;;;;10.25;53.65;99363.88;5001073;27;119057;-69
2021/12/04 04:24:06;;;;;;;;;;;;;;;10.25;53.57;99358.50;5002747;27;98705;-60
2021/12/04 04:26:32;;;;;;;;;;;;;;;10.24;53.68;99358.75;5001105;27;98026;-60
2021/12/04 04:28:57;;;;;;;;;;;;;;;10.24;53.20;99362.25;4994736;27;113491;-60
2021/12/04 04:31:23;;;;;;;;;;;;;;;10.25;54.08;99361.19;5000401;27;127999;-68
2021/12/04 04:33:49;;;;;;;;;;;;;;;10.24;53.96;99362.25;5001225;27;99024;-60
2021/12/04 04:36:36;;;;;;;;;;;;;;;10.25;53.53;99363.09;5001241;27;98341;-59
2021/12/04 05:11:17;;;;;;;;;;;;;;;10.15;54.20;99334.38;4986709;27;97894;-60
2021/12/04 05:13:43;;;;;;;;;;;;;;;10.16;54.07;99344.06;5004829;27;98297;-69
2021/12/04 05:16:13;;;;;;;;;;;;;;;10.15;54.03;99331.69;4985957;27;99246;-69
2021/12/04 05:18:50;;;;;;;;;;;;;;;10.14;54.05;99343.56;4996676;27;98179;-68
2021/12/04 05:21:16;;;;;;;;;;;;;;;10.15;54.43;99325.50;5005733;27;98013;-60
2021/12/04 05:23:48;;;;;;;;;;;;;;;10.15;53.88;99334.38;5003403;27;128988;-68
2021/12/04 05:26:19;;;;;;;;;;;;;;;10.15;53.79;99337.09;4987513;27;99074;-59
2021/12/04 05:28:45;;;;;;;;;;;;;;;10.15;53.85;99336.28;4995237;27;97989;-60
2021/12/04 05:31:11;;;;;;;;;;;;;;;10.14;54.11;99330.09;5005137;27;115172;-69
2021/12/04 05:33:39;;;;;;;;;;;;;;;10.16;53.81;99335.19;5002552;27;126845;-69
2021/12/04 05:36:05;;;;;;;;;;;;;;;10.14;54.37;99330.09;5003450;27;98144;-59
2021/12/04 05:38:31;;;;;;;;;;;;;;;10.13;53.97;99325.00;4993888;27;116277;-59
2021/12/04 05:40:57;;;;;;;;;;;;;;;10.13;53.84;99330.38;5003451;27;97703;-59
2021/12/04 05:43:24;;;;;;;;;;;;;;;10.13;54.14;99325.00;4983738;27;98326;-60
2021/12/04 05:45:55;;;;;;;;;;;;;;;10.11;53.72;99324.50;4984381;27;98333;-59
2021/12/04 05:51:27;;;;;;;;;;;;;;;10.10;54.15;99323.69;4966612;28;98288;-59
2021/12/04 05:54:05;;;;;;;;;;;;;;;10.09;53.90;99319.38;4982424;27;98475;-60
2021/12/04 05:56:32;;;;;;;;;;;;;;;10.06;53.97;99322.66;4990848;27;98545;-59
2021/12/04 05:58:58;;;;;;;;;;;;;;;10.07;54.25;99326.97;4980429;28;98159;-60
2021/12/04 06:01:24;;;;;;;;;;;;;;;10.06;53.48;99328.03;4999113;27;109482;-60
2021/12/04 06:03:50;;;;;;;;;;;;;;;10.04;53.87;99325.66;4984392;27;101379;-60
2021/12/04 06:06:16;;;;;;;;;;;;;;;10.02;54.16;99325.16;4983679;27;110227;-60
2021/12/04 06:08:43;;;;;;;;;;;;;;;10.02;53.92;99335.94;4993702;27;98154;-59
2021/12/04 06:11:09;;;;;;;;;;;;;;;10.00;53.53;99330.00;5002093;27;112456;-60
2021/12/04 06:13:35;;;;;;;;;;;;;;;9.99;54.42;99333.81;5000672;27;97921;-59
2021/12/04 06:16:01;;;;;;;;;;;;;;;9.98;54.20;99337.59;5000721;27;127741;-59
2021/12/04 06:18:27;;;;;;;;;;;;;;;9.98;54.16;99342.16;5002449;27;98262;-59
2021/12/04 06:23:37;;;;;;;;;;;;;;;9.96;53.86;99342.47;5001263;27;98264;-60
2021/12/04 06:26:05;;;;;;;;;;;;;;;9.95;53.90;99343.56;5001027;27;127546;-59
2021/12/04 06:28:31;;;;;;;;;;;;;;;9.93;53.96;99343.03;4993170;27;97940;-59
2021/12/04 06:30:59;;;;;;;;;;;;;;;9.93;53.96;99356.50;5002543;27;105136;-60
2021/12/04 06:33:25;;;;;;;;;;;;;;;9.93;54.13;99350.31;5001928;27;98371;-60
2021/12/04 06:35:52;;;;;;;;;;;;;;;9.92;53.92;99351.41;5000876;27;126904;-60
2021/12/04 06:38:18;;;;;;;;;;;;;;;9.92;54.01;99352.19;4981294;27;98528;-59
2021/12/04 06:40:44;;;;;;;;;;;;;;;9.91;53.85;99356.00;5001822;27;117859;-60
2021/12/04 06:43:10;;;;;;;;;;;;;;;9.91;54.20;99352.50;5000992;27;127571;-59
2021/12/04 06:45:37;;;;;;;;;;;;;;;9.90;54.44;99357.06;5002267;27;109453;-60
2021/12/04 06:48:10;;;;;;;;;;;;;;;9.89;54.09;99350.09;4993684;27;98056;-60
2021/12/04 06:53:11;;;;;;;;;;;;;;;9.88;53.99;99329.66;4999825;27;122229;-59
2021/12/04 06:55:40;;;;;;;;;;;;;;;9.87;54.42;99335.34;5002144;27;98893;-60
2021/12/04 06:58:06;;;;;;;;;;;;;;;9.87;54.18;99335.34;4982366;27;98768;-59
2021/12/04 07:00:33;;;;;;;;;;;;;;;9.85;54.60;99335.59;5001195;27;97952;-59
2021/12/04 07:02:59;;;;;;;;;;;;;;;9.83;54.28;99333.22;5000860;27;99151;-60
2021/12/04 07:05:25;;;;;;;;;;;;;;;9.84;55.17;99342.88;4999280;27;129288;-59
2021/12/04 07:07:50;;;;;;;;;;;;;;;9.82;54.27;99334.31;4970266;27;129388;-59
2021/12/04 07:10:16;;;;;;;;;;;;;;;9.82;54.45;99331.63;4979438;27;116813;-60
2021/12/04 07:12:42;;;;;;;;;;;;;;;9.82;54.13;99338.88;4978701;27;128087;-59
2021/12/04 07:15:10;;;;;;;;;;;;;;;9.81;54.07;99332.69;4998338;27;127037;-59
2021/12/04 07:17:35;;;;;;;;;;;;;;;9.80;54.77;99331.09;4991631;27;98020;-59
2021/12/04 07:20:03;;;;;;;;;;;;;;;9.81;54.62;99315.75;5000537;27;97910;-69
2021/12/04 07:22:29;;;;;;;;;;;;;;;9.79;55.26;99307.97;4998719;27;99246;-59
2021/12/04 07:24:55;;;;;;;;;;;;;;;9.80;54.84;99306.88;4999084;27;128098;-59
2021/12/04 07:27:21;;;;;;;;;;;;;;;9.81;54.74;99288.81;4990710;27;98657;-60
2021/12/04 07:29:47;;;;;;;;;;;;;;;9.80;55.19;99287.22;4999850;27;105183;-68
2021/12/04 07:32:13;;;;;;;;;;;;;;;9.80;54.99;99298.00;4981693;27;127529;-68
2021/12/04 07:34:39;;;;;;;;;;;;;;;9.81;54.78;99305.78;4999639;27;103719;-68
2021/12/04 07:37:05;;;;;;;;;;;;;;;9.82;54.95;99298.50;4992882;27;124061;-69
2021/12/04 07:39:31;;;;;;;;;;;;;;;9.82;54.67;99314.66;4998486;27;97745;-69
2021/12/04 07:41:57;;;;;;;;;;;;;;;9.81;54.72;99311.16;4997853;27;116194;-69
2021/12/04 07:44:22;;;;;;;;;;;;;;;9.84;55.20;99309.78;4998571;27;128049;-68
2021/12/04 07:46:48;;;;;;;;;;;;;;;9.84;55.22;99321.34;4994577;27;127955;-68
2021/12/04 07:49:14;;;;;;;;;;;;;;;9.86;55.27;99321.03;4995047;27;113138;-69
2021/12/04 07:51:40;;;;;;;;;;;;;;;9.84;54.80;99315.16;4999556;27;99074;-69
2021/12/04 07:54:08;;;;;;;;;;;;;;;9.86;55.11;99315.66;4998862;27;128690;-68
2021/12/04 07:56:33;;;;;;;;;;;;;;;9.86;54.99;99304.09;4997515;27;98699;-69
2021/12/04 07:58:59;;;;;;;;;;;;;;;9.86;55.20;99298.72;4992369;27;117850;-68
2021/12/04 08:01:26;;;;;;;;;;;;;;;9.87;55.01;99297.66;4999586;27;98304;-68
2021/12/04 08:03:52;;;;;;;;;;;;;;;9.88;55.16;99296.56;4998652;27;98731;-69
2021/12/04 08:06:18;;;;;;;;;;;;;;;9.88;54.84;99297.34;4999556;27;98761;-68
2021/12/04 08:08:44;;;;;;;;;;;;;;;9.89;54.80;99293.56;4990824;27;117879;-68
2021/12/04 08:11:10;;;;;;;;;;;;;;;9.91;54.99;99293.28;5000784;27;99096;-68
2021/12/04 08:13:35;;;;;;;;;;;;;;;9.91;55.52;99298.66;4997838;27;127156;-68
2021/12/04 08:16:01;;;;;;;;;;;;;;;9.91;55.09;99295.97;4980642;27;121301;-68
2021/12/04 08:18:28;;;;;;;;;;;;;;;9.92;55.42;99292.19;4974203;27;111863;-68
2021/12/04 08:20:54;;;;;;;;;;;;;;;9.92;54.49;99294.88;5003203;27;98132;-69
2021/12/04 08:23:20;;;;;;;;;;;;;;;9.91;55.97;99279.81;5002330;27;128249;-68
2021/12/04 08:25:47;;;;;;;;;;;;;;;9.91;55.19;99286.00;5003074;27;117741;-68
2021/12/04 08:28:13;;;;;;;;;;;;;;;9.91;55.52;99277.13;4976109;27;98176;-69
2021/12/04 08:30:40;;;;;;;;;;;;;;;9.91;55.32;99283.31;4984023;27;120201;-69
2021/12/04 08:33:08;;;;;;;;;;;;;;;9.90;55.14;99273.63;4966612;27;100219;-68
2021/12/04 08:35:39;;;;;;;;;;;;;;;9.91;55.70;99271.75;4967003;27;99555;-69
2021/12/04 08:38:05;;;;;;;;;;;;;;;9.91;55.32;99277.94;4978334;27;97991;-69
2021/12/04 08:40:31;;;;;;;;;;;;;;;9.93;55.86;99272.25;4984221;27;99076;-69
2021/12/04 08:42:57;;;;;;;;;;;;;;;9.94;55.42;99265.75;5001391;27;98608;-68
2021/12/04 08:45:23;;;;;;;;;;;;;;;9.96;55.96;99277.06;4984411;27;110921;-68
2021/12/04 08:47:49;;;;;;;;;;;;;;;9.98;55.16;99273.00;4994470;27;98001;-70
2021/12/04 08:50:19;;;;;;;;;;;;;;;9.99;55.04;99285.34;5002170;27;98775;-69
2021/12/04 08:52:44;;;;;;;;;;;;;;;10.00;55.38;99286.13;4996725;27;98173;-69
2021/12/04 08:55:11;;;;;;;;;;;;;;;10.01;55.18;99287.72;5001572;27;127389;-69
2021/12/04 08:57:37;;;;;;;;;;;;;;;10.02;55.92;99292.84;4993872;27;111570;-68
2021/12/04 09:00:11;;;;;;;;;;;;;;;10.02;56.25;99297.41;5002633;27;99355;-69
2021/12/04 09:02:38;;;;;;;;;;;;;;;10.02;55.75;99295.53;5002753;27;98055;-69
2021/12/04 09:05:04;;;;;;;;;;;;;;;10.04;55.80;99287.97;5002428;27;98143;-68
2021/12/04 09:07:30;;;;;;;;;;;;;;;10.05;55.92;99278.78;4993991;27;97876;-69
2021/12/04 09:09:57;;;;;;;;;;;;;;;10.07;55.73;99278.50;5000417;27;128528;-68
2021/12/04 09:12:24;;;;;;;;;;;;;;;10.09;55.86;99287.06;5001557;27;99145;-59
2021/12/04 09:14:50;;;;;;;;;;;;;;;10.13;56.14;99285.41;5001481;27;98704;-68
2021/12/04 09:17:16;;;;;;;;;;;;;;;10.17;55.97;99281.03;4986500;27;99837;-69
2021/12/04 09:19:42;;;;;;;;;;;;;;;10.21;55.52;99284.72;4999976;27;99182;-69
2021/12/04 09:22:14;;;;;;;;;;;;;;;10.25;55.66;99280.38;5000605;27;115582;-59
2021/12/04 09:24:42;;;;;;;;;;;;;;;10.29;55.99;99280.59;5000620;27;97833;-59
2021/12/04 09:27:37;;;;;;;;;;;;;;;10.34;55.56;99282.44;4995571;27;97961;-68
2021/12/04 10:00:06;;;;;;;;;;;;;;;10.71;55.96;99249.19;4992364;27;99668;-69
2021/12/04 10:13:33;;;;;;;;;;;;;;;10.78;56.06;99231.53;4983700;27;99082;-69
2021/12/04 10:18:54;;;;;;;;;;;;;;;10.86;56.16;99231.94;4990987;27;97953;-69
2021/12/04 10:21:45;;;;;;;;;;;;;;;10.88;56.33;99230.53;5001088;27;97954;-68
2021/12/04 10:24:34;;;;;;;;;;;;;;;10.92;56.41;99215.34;5000733;27;98424;-69
2021/12/04 10:35:04;;;;;;;;;;;;;;;11.07;56.16;99204.28;4996625;27;98079;-69
2021/12/04 10:37:31;;;;;;;;;;;;;;;11.10;56.59;99202.88;4991702;27;98347;-69
2021/12/04 10:39:59;;;;;;;;;;;;;;;11.14;56.27;99195.78;5000217;27;98968;-69
2021/12/04 10:42:32;;;;;;;;;;;;;;;11.19;55.84;99198.38;5000274;27;98163;-69
2021/12/04 10:44:59;;;;;;;;;;;;;;;11.23;56.03;99195.88;5000730;27;98476;-69
2021/12/04 10:47:26;;;;;;;;;;;;;;;11.27;56.18;99186.06;4991116;27;98915;-68
2021/12/04 10:50:21;;;;;;;;;;;;;;;11.30;56.12;99190.88;4999306;27;98030;-69
2021/12/04 10:52:58;;;;;;;;;;;;;;;11.32;56.21;99177.88;5000491;27;98074;-69
2021/12/04 10:55:33;;;;;;;;;;;;;;;11.34;56.22;99167.56;4999864;27;98989;-68
2021/12/04 10:59:12;;;;;;;;;;;;;;;11.37;56.57;99168.88;4991277;27;98143;-69
2021/12/04 11:03:45;;;;;;;;;;;;;;;11.40;56.42;99169.06;4999943;27;98122;-69
2021/12/04 11:26:33;;;;;;;;;;;;;;;11.83;56.25;99135.41;4989815;27;98500;-59
2021/12/04 11:37:33;;;;;;;;;;;;;;;12.02;56.06;99120.66;4992313;27;97937;-69
2021/12/04 11:40:08;;;;;;;;;;;;;;;12.08;56.27;99120.53;4990668;27;98594;-59
2021/12/04 11:45:45;;;;;;;;;;;;;;;12.11;56.74;99101.81;4940283;27;99509;-59
2021/12/04 11:48:10;;;;;;;;;;;;;;;12.14;56.35;99097.66;4973475;27;98013;-59
2021/12/04 11:50:39;;;;;;;;;;;;;;;12.11;56.44;99099.09;4997736;27;128688;-68
2021/12/04 11:53:10;;;;;;;;;;;;;;;12.08;56.59;99104.31;4997801;27;98522;-60
2021/12/04 11:55:38;;;;;;;;;;;;;;;12.03;56.79;99099.84;4999144;27;98191;-69
2021/12/04 11:58:15;;;;;;;;;;;;;;;12.04;56.86;99098.75;4985030;27;114129;-69
2021/12/04 12:00:40;;;;;;;;;;;;;;;12.06;56.68;99095.72;4998392;27;118617;-59
2021/12/04 12:03:10;;;;;;;;;;;;;;;12.06;56.72;99096.50;4997218;27;123236;-69
2021/12/04 12:05:47;;;;;;;;;;;;;;;12.12;56.56;99091.78;4998252;27;97811;-59
2021/12/04 12:08:27;;;;;;;;;;;;;;;12.13;56.75;99099.56;4990654;27;97933;-59
2021/12/04 12:11:05;;;;;;;;;;;;;;;12.15;56.73;99094.66;4979619;27;98435;-60
2021/12/04 12:13:36;;;;;;;;;;;;;;;12.18;56.71;99094.06;4979118;27;99050;-60
2021/12/04 12:16:36;;;;;;;;;;;;;;;12.18;56.95;99085.13;4998066;27;98430;-69
2021/12/04 12:19:14;;;;;;;;;;;;;;;12.16;56.97;99085.44;4996630;27;97802;-60
2021/12/04 12:21:45;;;;;;;;;;;;;;;12.18;57.01;99075.16;4999270;27;98646;-69
2021/12/04 12:27:21;;;;;;;;;;;;;;;12.23;57.04;99072.31;4992245;27;98167;-60
2021/12/04 12:38:17;;;;;;;;;;;;;;;12.31;57.25;99067.25;4987986;27;98050;-60
2021/12/04 12:41:02;;;;;;;;;;;;;;;12.33;57.34;99060.41;4997906;27;97779;-69
2021/12/04 12:43:52;;;;;;;;;;;;;;;12.36;57.03;99051.69;4981649;27;98298;-59
2021/12/04 12:46:18;;;;;;;;;;;;;;;12.43;57.01;99051.22;4997718;27;124914;-60
2021/12/04 12:48:54;;;;;;;;;;;;;;;12.43;57.10;99038.50;4989299;27;127323;-60
2021/12/04 12:51:25;;;;;;;;;;;;;;;12.40;57.17;99043.75;4998246;27;98321;-59
2021/12/04 12:53:51;;;;;;;;;;;;;;;12.36;57.28;99038.16;4997407;27;98822;-60
2021/12/04 12:56:17;;;;;;;;;;;;;;;12.34;57.26;99039.59;4997962;27;126612;-59
2021/12/04 12:58:47;;;;;;;;;;;;;;;12.32;57.37;99045.31;4982550;27;98200;-60
2021/12/04 13:12:52;;;;;;;;;;;;;;;12.23;57.55;99044.50;4995828;27;98735;-69
2021/12/04 13:15:40;;;;;;;;;;;;;;;12.22;57.39;99045.56;5000158;27;98791;-60
2021/12/04 13:18:20;;;;;;;;;;;;;;;12.18;57.65;99044.59;4978095;27;99875;-59
2021/12/04 13:20:46;;;;;;;;;;;;;;;12.15;57.78;99043.34;4984931;27;98017;-69
2021/12/04 13:23:13;;;;;;;;;;;;;;;12.11;57.77;99039.69;5000241;27;116472;-68
2021/12/04 13:25:47;;;;;;;;;;;;;;;12.07;57.98;99035.22;5000323;27;98723;-61
2021/12/04 13:28:20;;;;;;;;;;;;;;;12.02;58.09;99034.25;4990735;27;98356;-59
2021/12/04 13:30:46;;;;;;;;;;;;;;;12.00;57.92;99038.34;4998928;27;107333;-59
2021/12/04 13:33:12;;;;;;;;;;;;;;;11.96;58.14;99032.78;4981059;27;97739;-59
2021/12/04 13:35:38;;;;;;;;;;;;;;;11.92;58.02;99010.19;4999137;27;99144;-59
2021/12/04 13:38:05;;;;;;;;;;;;;;;11.89;58.07;99008.13;4989970;27;99727;-59
2021/12/04 13:40:31;;;;;;;;;;;;;;;11.86;58.01;99010.63;4997830;27;98377;-60
2021/12/04 13:42:57;;;;;;;;;;;;;;;11.81;58.22;99014.25;4999279;27;98046;-60
2021/12/04 13:45:23;;;;;;;;;;;;;;;11.77;58.14;99015.97;4998142;27;127516;-59
2021/12/04 13:47:53;;;;;;;;;;;;;;;11.72;58.46;99025.00;4989860;27;104015;-60
2021/12/04 13:53:01;;;;;;;;;;;;;;;11.63;58.26;99043.06;4997233;27;97881;-59
2021/12/04 13:55:28;;;;;;;;;;;;;;;11.60;58.56;99040.19;4998706;27;98331;-59
2021/12/04 13:57:56;;;;;;;;;;;;;;;11.55;58.50;99036.50;4991659;27;98780;-60
2021/12/04 14:00:22;;;;;;;;;;;;;;;11.53;58.26;99035.19;4979547;27;98422;-60
2021/12/04 14:02:48;;;;;;;;;;;;;;;11.51;58.50;99034.69;4997843;27;116349;-59
2021/12/04 14:05:19;;;;;;;;;;;;;;;11.48;58.61;99025.34;4997416;27;127911;-60
2021/12/04 14:07:49;;;;;;;;;;;;;;;11.46;58.77;99015.94;4990037;27;125523;-59
2021/12/04 14:10:16;;;;;;;;;;;;;;;11.44;58.18;99010.06;4992443;27;98525;-59
2021/12/04 14:12:42;;;;;;;;;;;;;;;11.41;58.52;99008.78;4999421;27;99105;-59
2021/12/04 14:15:09;;;;;;;;;;;;;;;11.41;58.39;99013.38;4997542;27;98293;-59
2021/12/04 14:17:35;;;;;;;;;;;;;;;11.38;58.41;99001.28;4990217;27;98348;-59
2021/12/04 14:20:01;;;;;;;;;;;;;;;11.36;58.46;99006.22;4997211;27;129730;-60
2021/12/04 14:22:27;;;;;;;;;;;;;;;11.34;58.41;99005.72;4999429;27;97932;-59
2021/12/04 14:24:57;;;;;;;;;;;;;;;11.31;58.66;99004.41;4997552;27;127047;-60
2021/12/04 14:27:24;;;;;;;;;;;;;;;11.30;58.59;99016.31;4990004;27;98924;-59
2021/12/04 14:29:58;;;;;;;;;;;;;;;11.29;58.65;99016.63;4997000;27;112601;-59
2021/12/04 14:32:25;;;;;;;;;;;;;;;11.27;58.47;99014.22;4981501;27;97886;-59
2021/12/04 14:35:02;;;;;;;;;;;;;;;11.25;58.42;99002.97;4998643;27;97799;-59
2021/12/04 14:37:31;;;;;;;;;;;;;;;11.23;58.44;98994.38;4990185;27;98306;-59
2021/12/04 14:39:57;;;;;;;;;;;;;;;11.20;58.61;98992.31;4979096;27;121030;-59
2021/12/04 14:42:25;;;;;;;;;;;;;;;11.19;58.59;99003.38;4998574;27;97907;-60
2021/12/04 14:44:53;;;;;;;;;;;;;;;11.15;58.40;98997.00;4997768;27;98415;-59
2021/12/04 14:47:20;;;;;;;;;;;;;;;11.10;58.55;98984.44;4967909;28;99094;-60
2021/12/04 14:49:46;;;;;;;;;;;;;;;11.07;58.44;98980.44;4957338;28;126958;-60
2021/12/04 14:52:22;;;;;;;;;;;;;;;11.05;58.70;98976.47;4989313;27;97777;-59
2021/12/04 14:54:49;;;;;;;;;;;;;;;11.00;58.92;98971.19;4996996;27;97909;-59
2021/12/04 14:57:17;;;;;;;;;;;;;;;10.98;58.30;98976.09;4998574;27;98643;-59
2021/12/04 14:59:43;;;;;;;;;;;;;;;10.93;58.36;98970.84;4998211;27;101879;-68
2021/12/04 15:02:18;;;;;;;;;;;;;;;10.93;58.46;98984.31;4999937;27;97980;-60
2021/12/04 15:04:44;;;;;;;;;;;;;;;10.89;58.83;98988.72;4999266;27;98514;-59
2021/12/04 15:07:20;;;;;;;;;;;;;;;10.86;58.55;98995.53;4992557;27;98881;-59
2021/12/04 15:09:46;;;;;;;;;;;;;;;10.84;58.42;99003.09;4990195;27;98143;-59
2021/12/04 15:12:22;;;;;;;;;;;;;;;10.80;58.67;98999.41;5000025;27;97898;-68
2021/12/04 15:14:48;;;;;;;;;;;;;;;10.78;58.29;98998.94;4981003;27;124211;-69
2021/12/04 15:17:14;;;;;;;;;;;;;;;10.75;58.27;99005.72;4970478;28;98122;-60
2021/12/04 15:19:42;;;;;;;;;;;;;;;10.74;58.45;99008.72;4997361;27;98194;-59
2021/12/04 15:22:19;;;;;;;;;;;;;;;10.72;58.31;99002.84;4981381;27;97951;-68
2021/12/04 15:24:45;;;;;;;;;;;;;;;10.72;58.40;99008.22;4965037;27;98085;-60
2021/12/04 15:27:18;;;;;;;;;;;;;;;10.70;58.89;99000.44;4991972;27;128731;-69
2021/12/04 15:29:48;;;;;;;;;;;;;;;10.69;58.45;99012.34;4998460;27;99718;-59
2021/12/04 15:32:17;;;;;;;;;;;;;;;10.67;58.56;99008.34;4999078;27;98178;-69
2021/12/04 15:34:51;;;;;;;;;;;;;;;10.67;58.54;99006.44;4999245;27;98568;-69
2021/12/04 15:37:41;;;;;;;;;;;;;;;10.65;58.24;99005.97;4969758;28;98561;-69
2021/12/04 15:40:11;;;;;;;;;;;;;;;10.64;58.21;99006.25;4988928;27;97944;-69
2021/12/04 15:42:51;;;;;;;;;;;;;;;10.62;58.08;99001.16;4990782;27;98703;-69
2021/12/04 15:45:29;;;;;;;;;;;;;;;10.60;58.25;98997.97;4998791;27;98441;-59
2021/12/04 15:48:37;;;;;;;;;;;;;;;10.59;58.51;98990.19;4989506;27;99300;-68